createdAt,value
2023-02-11T00:01:26.052Z,33.90
2023-02-11T00:03:53.525Z,28.85
2023-02-11T00:06:20.921Z,35.20
2023-02-11T00:08:48.207Z,33.88
2023-02-11T00:11:19.496Z,29.73
2023-02-11T00:13:47.118Z,28.40
2023-02-11T00:16:20.094Z,28.13
2023-02-11T00:18:47.496Z,25.25
2023-02-11T00:21:24.707Z,27.73
2023-02-11T00:23:53.185Z,26.50
2023-02-11T00:26:25.416Z,27.00
2023-02-11T00:28:53.461Z,25.85
2023-02-11T00:31:23.006Z,25.42
2023-02-11T00:33:50.578Z,24.13
2023-02-11T00:36:22.837Z,31.15
2023-02-11T00:38:51.688Z,26.23
2023-02-11T00:41:20.134Z,24.13
2023-02-11T00:43:47.888Z,26.95
2023-02-11T00:46:16.677Z,26.25
2023-02-11T00:48:44.425Z,25.33
2023-02-11T00:51:12.124Z,26.55
2023-02-11T00:53:39.502Z,22.20
2023-02-11T00:56:08.296Z,22.25
2023-02-11T00:58:36.867Z,26.27
2023-02-11T01:01:04.987Z,26.20
2023-02-11T01:03:32.061Z,22.05
2023-02-11T01:05:58.939Z,21.83
2023-02-11T01:08:26.279Z,21.58
2023-02-11T01:11:04.030Z,21.77
2023-02-11T01:13:33.769Z,23.38
2023-02-11T01:16:01.054Z,23.55
2023-02-11T01:18:28.275Z,21.08
2023-02-11T01:20:55.502Z,28.25
2023-02-11T01:23:23.818Z,26.13
2023-02-11T01:25:51.307Z,20.02
2023-02-11T01:28:22.970Z,23.20
2023-02-11T01:33:18.114Z,21.30
2023-02-11T01:35:45.207Z,19.17
2023-02-11T01:38:26.591Z,24.30
2023-02-11T01:41:04.825Z,21.48
2023-02-11T01:43:37.287Z,23.20
2023-02-11T01:46:23.385Z,22.27
2023-02-11T01:49:07.534Z,19.63
2023-02-11T01:51:41.700Z,19.17
2023-02-11T01:54:31.607Z,19.63
2023-02-11T01:57:21.126Z,19.05
2023-02-11T02:00:10.185Z,21.17
2023-02-11T02:03:02.886Z,18.88
2023-02-11T02:05:48.740Z,19.40
2023-02-11T02:08:34.311Z,21.90
2023-02-11T02:11:03.590Z,20.98
2023-02-11T02:13:34.592Z,19.92
2023-02-11T02:16:15.076Z,15.65
2023-02-11T02:19:38.526Z,17.02
2023-02-11T02:22:35.774Z,18.10
2023-02-11T02:25:27.629Z,17.80
2023-02-11T02:28:30.737Z,21.20
2023-02-11T02:31:31.694Z,20.85
2023-02-11T02:34:24.016Z,14.98
2023-02-11T02:38:21.842Z,17.27
2023-02-11T02:41:02.511Z,21.50
2023-02-11T02:43:30.801Z,21.38
2023-02-11T02:46:10.889Z,21.27
2023-02-11T02:48:37.958Z,23.40
2023-02-11T02:51:35.922Z,17.80
2023-02-11T02:54:42.352Z,20.92
2023-02-11T02:57:44.532Z,20.60
2023-02-11T03:00:47.307Z,22.52
2023-02-11T03:03:59.695Z,19.98
2023-02-11T03:06:57.703Z,17.83
2023-02-11T03:09:55.279Z,22.60
2023-02-11T03:12:26.283Z,22.17
2023-02-11T03:14:53.328Z,17.88
2023-02-11T03:17:23.471Z,16.00
2023-02-11T03:19:51.797Z,21.15
2023-02-11T03:22:50.786Z,22.60
2023-02-11T03:25:19.098Z,15.95
2023-02-11T03:28:09.279Z,23.27
2023-02-11T03:31:07.785Z,21.17
2023-02-11T03:33:53.466Z,18.85
2023-02-11T03:36:35.728Z,19.63
2023-02-11T03:39:05.687Z,20.45
2023-02-11T03:41:35.714Z,23.35
2023-02-11T03:44:04.454Z,20.70
2023-02-11T03:46:40.152Z,19.65
2023-02-11T03:49:13.448Z,19.30
2023-02-11T03:51:41.103Z,23.10
2023-02-11T03:54:16.511Z,24.45
2023-02-11T03:56:56.823Z,22.02
2023-02-11T03:59:24.005Z,19.75
2023-02-11T04:01:51.399Z,19.58
2023-02-11T04:04:19.041Z,20.33
2023-02-11T04:06:46.171Z,15.50
2023-02-11T04:09:15.190Z,20.63
2023-02-11T04:11:42.138Z,23.40
2023-02-11T04:14:08.997Z,22.73
2023-02-11T04:16:36.024Z,19.60
2023-02-11T04:19:02.993Z,20.55
2023-02-11T04:21:29.812Z,20.55
2023-02-11T04:23:56.724Z,20.98
2023-02-11T04:26:23.640Z,19.05
2023-02-11T04:28:50.587Z,18.73
2023-02-11T04:31:17.625Z,16.77
2023-02-11T04:33:44.585Z,23.45
2023-02-11T04:36:11.623Z,18.48
2023-02-11T04:38:38.737Z,19.27
2023-02-11T04:41:05.709Z,20.88
2023-02-11T04:43:32.595Z,19.27
2023-02-11T04:45:59.560Z,20.95
2023-02-11T04:48:26.649Z,18.75
2023-02-11T04:50:53.599Z,24.70
2023-02-11T04:53:20.532Z,17.67
2023-02-11T04:55:51.448Z,18.80
2023-02-11T04:58:19.660Z,25.48
2023-02-11T05:00:47.062Z,18.35
2023-02-11T05:03:14.232Z,21.92
2023-02-11T05:05:43.054Z,20.50
2023-02-11T05:08:11.294Z,18.45
2023-02-11T05:10:38.596Z,21.00
2023-02-11T05:13:05.542Z,22.17
2023-02-11T05:15:32.493Z,17.88
2023-02-11T05:17:59.331Z,22.60
2023-02-11T05:20:26.198Z,22.73
2023-02-11T05:22:53.139Z,19.83
2023-02-11T05:25:20.681Z,22.52
2023-02-11T05:27:47.654Z,19.25
2023-02-11T05:30:14.937Z,16.40
2023-02-11T05:32:41.947Z,22.35
2023-02-11T05:35:09.469Z,20.52
2023-02-11T05:37:36.662Z,22.02
2023-02-11T05:40:04.845Z,19.80
2023-02-11T05:42:31.861Z,20.27
2023-02-11T05:44:58.789Z,20.30
2023-02-11T05:47:25.806Z,22.40
2023-02-11T05:49:53.606Z,19.35
2023-02-11T05:52:22.302Z,21.95
2023-02-11T05:54:49.823Z,19.75
2023-02-11T05:57:17.724Z,20.52
2023-02-11T05:59:47.584Z,23.65
2023-02-11T06:02:14.523Z,25.08
2023-02-11T06:04:41.659Z,24.67
2023-02-11T06:07:08.616Z,25.83
2023-02-11T06:09:38.897Z,21.13
2023-02-11T06:12:06.089Z,21.23
2023-02-11T06:14:34.297Z,21.33
2023-02-11T06:17:01.751Z,21.88
2023-02-11T06:19:28.745Z,21.77
2023-02-11T06:21:56.704Z,23.42
2023-02-11T06:24:44.325Z,23.90
2023-02-11T06:27:11.024Z,19.05
2023-02-11T06:29:37.915Z,24.77
2023-02-11T06:32:05.221Z,22.52
2023-02-11T06:34:32.266Z,25.67
2023-02-11T06:36:59.180Z,22.50
2023-02-11T06:39:26.135Z,21.70
2023-02-11T06:41:53.068Z,24.45
2023-02-11T06:44:19.941Z,27.65
2023-02-11T06:46:47.104Z,28.58
2023-02-11T06:49:14.136Z,23.63
2023-02-11T06:51:41.147Z,22.85
2023-02-11T06:54:08.482Z,23.20
2023-02-11T06:56:36.813Z,28.05
2023-02-11T06:59:03.825Z,23.23
2023-02-11T07:01:30.955Z,27.85
2023-02-11T07:03:58.534Z,20.52
2023-02-11T07:06:27.913Z,27.48
2023-02-11T07:08:55.802Z,24.52
2023-02-11T07:11:27.783Z,29.55
2023-02-11T07:14:00.488Z,27.65
2023-02-11T07:16:27.515Z,27.65
2023-02-11T07:18:54.441Z,26.55
2023-02-11T07:21:24.266Z,29.83
2023-02-11T07:23:51.970Z,27.77
2023-02-11T07:26:29.088Z,27.67
2023-02-11T07:28:56.148Z,28.73
2023-02-11T07:31:27.659Z,33.95
2023-02-11T07:34:00.000Z,27.48
2023-02-11T07:36:30.255Z,27.90
2023-02-11T07:38:58.092Z,29.45
2023-02-11T07:41:26.564Z,33.70
2023-02-11T07:43:53.638Z,33.50
2023-02-11T07:46:27.328Z,35.13
2023-02-11T07:48:55.183Z,27.17
2023-02-11T07:51:23.508Z,30.92
2023-02-11T07:53:50.676Z,28.73
2023-02-11T07:56:19.710Z,32.50
2023-02-11T07:58:47.147Z,32.90
2023-02-11T08:01:25.868Z,29.40
2023-02-11T08:03:53.853Z,30.85
2023-02-11T08:06:24.980Z,33.25
2023-02-11T08:08:52.310Z,30.15
2023-02-11T08:11:23.693Z,32.30
2023-02-11T08:13:51.313Z,32.65
2023-02-11T08:16:24.575Z,37.50
2023-02-11T08:18:53.930Z,31.48
2023-02-11T08:21:21.261Z,29.42
2023-02-11T08:23:49.350Z,36.45
2023-02-11T08:26:21.617Z,40.22
2023-02-11T08:28:51.990Z,37.13
2023-02-11T08:31:26.339Z,35.80
2023-02-11T08:36:25.889Z,40.25
2023-02-11T08:39:08.636Z,37.47
2023-02-11T08:41:43.846Z,37.00
2023-02-11T08:44:11.610Z,39.20
2023-02-11T08:46:38.553Z,34.72
2023-02-11T08:49:05.590Z,46.28
2023-02-11T08:51:33.014Z,45.75
2023-02-11T08:54:01.032Z,41.95
2023-02-11T08:56:30.831Z,41.55
2023-02-11T08:58:57.979Z,41.83
2023-02-11T09:01:29.732Z,41.60
2023-02-11T09:03:58.410Z,43.95
2023-02-11T09:06:26.286Z,42.33
2023-02-11T09:08:56.920Z,48.10
2023-02-11T09:11:35.768Z,38.92
2023-02-11T09:14:04.607Z,44.75
2023-02-11T09:16:36.175Z,48.65
2023-02-11T09:19:05.586Z,46.85
2023-02-11T09:21:33.052Z,45.45
2023-02-11T09:24:00.131Z,45.67
2023-02-11T09:26:34.728Z,44.63
2023-02-11T09:29:03.595Z,45.20
2023-02-11T09:31:33.061Z,46.88
2023-02-11T09:34:05.917Z,48.50
2023-02-11T09:36:39.558Z,51.40
2023-02-11T09:39:13.902Z,44.83
2023-02-11T09:42:16.399Z,47.50
2023-02-11T09:44:46.682Z,55.55
2023-02-11T09:47:28.931Z,45.90
2023-02-11T09:50:11.203Z,44.17
2023-02-11T09:53:16.773Z,43.97
2023-02-11T09:58:24.508Z,46.83
2023-02-11T10:01:23.340Z,43.75
2023-02-11T10:04:25.420Z,45.38
2023-02-11T10:06:57.557Z,48.05
2023-02-11T10:09:57.510Z,53.53
2023-02-11T10:13:04.553Z,50.38
2023-02-11T10:16:16.168Z,47.85
2023-02-11T10:19:15.413Z,52.97
2023-02-11T10:22:16.518Z,52.83
2023-02-11T10:24:54.480Z,57.58
2023-02-11T10:27:31.411Z,50.72
2023-02-11T10:30:19.165Z,47.60
2023-02-11T10:33:23.092Z,42.60
2023-02-11T10:35:50.165Z,47.40
2023-02-11T10:38:17.387Z,41.65
2023-02-11T10:40:44.559Z,46.00
2023-02-11T10:43:16.635Z,43.42
2023-02-11T10:45:50.874Z,44.47
2023-02-11T10:48:43.852Z,47.65
2023-02-11T10:51:13.409Z,42.15
2023-02-11T10:53:41.391Z,40.42
2023-02-11T10:56:19.732Z,55.30
2023-02-11T10:58:59.010Z,64.03
2023-02-11T11:01:50.005Z,42.03
2023-02-11T11:04:36.472Z,44.80
2023-02-11T11:07:29.307Z,44.47
2023-02-11T11:10:25.443Z,40.38
2023-02-11T11:12:52.409Z,42.95
2023-02-11T11:15:31.484Z,41.72
2023-02-11T11:18:22.850Z,42.28
2023-02-11T11:21:23.767Z,41.72
2023-02-11T11:24:03.695Z,41.72
2023-02-11T11:26:46.258Z,40.42
2023-02-11T11:29:37.012Z,39.33
2023-02-11T11:32:16.592Z,40.97
2023-02-11T11:34:52.553Z,39.75
2023-02-11T11:37:26.064Z,43.30
2023-02-11T11:40:08.156Z,41.63
2023-02-11T11:42:39.368Z,43.50
2023-02-11T11:45:15.350Z,42.42
2023-02-11T11:48:01.023Z,44.85
2023-02-11T11:50:39.028Z,39.67
2023-02-11T11:53:24.765Z,41.55
2023-02-11T11:56:03.031Z,37.45
2023-02-11T11:58:32.145Z,35.72
2023-02-11T12:01:31.321Z,37.55
2023-02-11T12:04:42.580Z,35.33
2023-02-11T12:07:40.243Z,40.60
2023-02-11T12:10:38.314Z,38.03
2023-02-11T12:13:55.884Z,38.50
2023-02-11T12:16:50.491Z,38.20
2023-02-11T12:19:52.418Z,39.65
2023-02-11T12:22:39.707Z,36.92
2023-02-11T12:25:45.714Z,35.58
2023-02-11T12:28:50.857Z,35.08
2023-02-11T12:31:49.108Z,34.00
2023-02-11T12:34:52.950Z,36.22
2023-02-11T12:37:45.520Z,32.63
2023-02-11T12:40:26.727Z,36.88
2023-02-11T12:43:17.256Z,34.38
2023-02-11T12:46:17.176Z,31.73
2023-02-11T12:49:26.315Z,35.67
2023-02-11T12:52:43.106Z,31.77
2023-02-11T12:55:26.524Z,31.45
2023-02-11T12:57:58.013Z,28.25
2023-02-11T13:00:46.771Z,27.38
2023-02-11T13:03:31.889Z,30.58
2023-02-11T13:06:06.940Z,26.27
2023-02-11T13:08:40.700Z,30.60
2023-02-11T13:11:24.424Z,30.20
2023-02-11T13:14:10.711Z,25.48
2023-02-11T13:16:50.907Z,25.15
2023-02-11T13:19:27.389Z,27.75
2023-02-11T13:22:17.138Z,25.75
2023-02-11T13:24:59.748Z,22.35
2023-02-11T13:27:43.834Z,21.63
2023-02-11T13:30:19.975Z,21.67
2023-02-11T13:32:56.035Z,23.13
2023-02-11T13:35:41.098Z,21.08
2023-02-11T13:38:17.046Z,20.75
2023-02-11T13:40:45.170Z,20.13
2023-02-11T13:43:25.502Z,21.35
2023-02-11T13:46:00.894Z,21.33
2023-02-11T13:48:46.216Z,22.13
2023-02-11T13:51:18.772Z,19.20
2023-02-11T13:53:51.560Z,19.15
2023-02-11T13:56:29.508Z,19.92
2023-02-11T13:59:01.878Z,18.17
2023-02-11T14:02:07.178Z,16.13
2023-02-11T14:04:53.391Z,15.93
2023-02-11T14:07:51.929Z,18.52
2023-02-11T14:10:43.565Z,13.68
2023-02-11T14:13:30.071Z,14.45
2023-02-11T14:16:20.308Z,14.40
2023-02-11T14:18:55.100Z,14.02
2023-02-11T14:21:33.161Z,14.20
2023-02-11T14:24:04.860Z,17.55
2023-02-11T14:27:15.708Z,22.25
2023-02-11T14:29:51.096Z,20.38
2023-02-11T14:32:42.439Z,20.77
2023-02-11T14:35:26.915Z,20.55
2023-02-11T14:38:39.858Z,17.02
2023-02-11T14:41:23.076Z,14.65
2023-02-11T14:43:59.493Z,20.88
2023-02-11T14:46:32.973Z,23.15
2023-02-11T14:49:05.206Z,23.40
2023-02-11T14:51:37.342Z,20.27
2023-02-11T14:54:24.401Z,17.60
2023-02-11T14:57:16.290Z,19.02
2023-02-11T15:00:22.094Z,17.15
2023-02-11T15:02:49.395Z,19.92
2023-02-11T15:05:29.692Z,20.80
2023-02-11T15:08:04.805Z,20.70
2023-02-11T15:10:41.459Z,18.10
2023-02-11T15:13:18.609Z,17.40
2023-02-11T15:15:46.999Z,17.58
2023-02-11T15:18:24.100Z,19.42
2023-02-11T15:20:52.356Z,24.90
2023-02-11T15:23:28.827Z,24.52
2023-02-11T15:25:56.526Z,22.45
2023-02-11T15:28:31.686Z,23.60
2023-02-11T15:31:15.152Z,25.52
2023-02-11T15:33:42.319Z,29.13
2023-02-11T15:36:13.066Z,22.27
2023-02-11T15:38:40.978Z,23.92
2023-02-11T15:41:08.859Z,23.48
2023-02-11T15:43:53.250Z,24.30
2023-02-11T15:46:23.481Z,25.15
2023-02-11T15:48:55.269Z,24.10
2023-02-11T15:51:39.775Z,19.23
2023-02-11T15:54:21.048Z,20.35
2023-02-11T15:56:52.193Z,21.15
2023-02-11T15:59:38.106Z,20.15
2023-02-11T16:02:21.860Z,19.65
2023-02-11T16:04:59.275Z,18.90
2023-02-11T16:07:50.024Z,18.40
2023-02-11T16:10:30.448Z,19.48
2023-02-11T16:13:19.921Z,21.50
2023-02-11T16:15:52.703Z,18.60
2023-02-11T16:18:37.773Z,20.70
2023-02-11T16:21:15.871Z,18.35
2023-02-11T16:23:50.380Z,19.65
2023-02-11T16:29:31.498Z,24.55
2023-02-11T16:32:20.695Z,22.48
2023-02-11T16:34:49.881Z,22.70
2023-02-11T16:37:17.291Z,21.27
2023-02-11T16:39:44.559Z,39.13
2023-02-11T16:42:13.221Z,26.23
2023-02-11T16:44:40.568Z,38.45
2023-02-11T16:47:19.354Z,25.10
2023-02-11T16:49:46.576Z,28.40
2023-02-11T16:52:17.660Z,27.90
2023-02-11T16:54:44.618Z,27.50
2023-02-11T16:57:19.145Z,28.10
2023-02-11T16:59:46.528Z,27.58
2023-02-11T17:02:24.738Z,27.67
2023-02-11T17:04:59.415Z,25.80
2023-02-11T17:07:27.902Z,23.55
2023-02-11T17:09:55.213Z,25.48
2023-02-11T17:12:25.360Z,22.95
2023-02-11T17:14:54.623Z,22.38
2023-02-11T17:17:23.908Z,23.92
2023-02-11T17:19:51.324Z,24.90
2023-02-11T17:22:18.679Z,24.52
2023-02-11T17:24:45.669Z,28.27
2023-02-11T17:27:13.081Z,25.10
2023-02-11T17:29:40.130Z,26.25
2023-02-11T17:32:07.120Z,31.83
2023-02-11T17:34:34.077Z,26.55
2023-02-11T17:37:05.206Z,24.42
2023-02-11T17:39:32.272Z,25.08
2023-02-11T17:41:59.188Z,26.67
2023-02-11T17:44:26.129Z,27.35
2023-02-11T17:46:53.094Z,28.00
2023-02-11T17:49:20.363Z,28.00
2023-02-11T17:51:47.336Z,26.88
2023-02-11T17:54:18.625Z,28.17
2023-02-11T17:56:50.549Z,27.50
2023-02-11T17:59:17.861Z,25.98
2023-02-11T18:01:45.143Z,25.05
2023-02-11T18:04:18.150Z,27.92
2023-02-11T18:06:46.256Z,28.08
2023-02-11T18:09:13.455Z,28.02
2023-02-11T18:11:41.138Z,31.20
2023-02-11T18:14:10.042Z,28.70
2023-02-11T18:16:39.690Z,36.28
2023-02-11T18:19:07.718Z,30.27
2023-02-11T18:21:35.292Z,28.85
2023-02-11T18:24:06.404Z,29.35
2023-02-11T18:26:35.004Z,27.77
2023-02-11T18:29:03.787Z,31.98
2023-02-11T18:31:31.730Z,29.63
2023-02-11T18:33:58.862Z,32.55
2023-02-11T18:36:25.882Z,31.17
2023-02-11T18:38:54.220Z,26.60
2023-02-11T18:41:21.450Z,29.52
2023-02-11T18:43:48.657Z,30.77
2023-02-11T18:46:15.840Z,32.17
2023-02-11T18:48:44.812Z,32.35
2023-02-11T18:51:16.160Z,33.70
2023-02-11T18:53:43.313Z,30.58
2023-02-11T18:56:17.744Z,33.40
2023-02-11T18:58:45.048Z,31.08
2023-02-11T19:01:20.838Z,30.63
2023-02-11T19:03:48.621Z,36.38
2023-02-11T19:06:37.327Z,40.40
2023-02-11T19:09:09.850Z,40.50
2023-02-11T19:11:49.001Z,39.28
2023-02-11T19:14:21.810Z,46.92
2023-02-11T19:16:51.607Z,48.50
2023-02-11T19:19:19.507Z,38.75
2023-02-11T19:21:47.497Z,39.55
2023-02-11T19:24:18.822Z,41.45
2023-02-11T19:26:47.819Z,37.83
2023-02-11T19:29:15.206Z,40.25
2023-02-11T19:31:43.408Z,37.20
2023-02-11T19:34:14.049Z,39.13
2023-02-11T19:36:41.840Z,42.00
2023-02-11T19:39:10.162Z,38.22
2023-02-11T19:41:37.850Z,33.42
2023-02-11T19:44:07.797Z,37.38
2023-02-11T19:46:38.359Z,36.92
2023-02-11T19:49:05.668Z,34.45
2023-02-11T19:51:33.868Z,35.08
2023-02-11T19:54:00.998Z,37.90
2023-02-11T19:56:28.634Z,33.78
2023-02-11T19:58:56.008Z,34.40
2023-02-11T20:01:25.330Z,33.33
2023-02-11T20:03:54.883Z,34.40
2023-02-11T20:06:28.906Z,32.85
2023-02-11T20:08:59.461Z,35.95
2023-02-11T20:11:30.057Z,31.92
2023-02-11T20:13:58.321Z,35.78
2023-02-11T20:16:44.596Z,34.38
2023-02-11T20:19:17.665Z,33.67
2023-02-11T20:21:47.859Z,33.83
2023-02-11T20:24:17.403Z,32.60
2023-02-11T20:26:46.428Z,31.52
2023-02-11T20:29:13.631Z,34.42
2023-02-11T20:31:42.342Z,34.05
2023-02-11T20:34:12.059Z,33.97
2023-02-11T20:36:40.453Z,31.75
2023-02-11T20:39:08.282Z,34.83
2023-02-11T20:41:40.834Z,36.40
2023-02-11T20:44:10.548Z,32.05
2023-02-11T20:46:41.576Z,35.25
2023-02-11T20:49:13.487Z,36.00
2023-02-11T20:51:40.786Z,35.47
2023-02-11T20:54:14.474Z,34.95
2023-02-11T20:56:41.969Z,35.15
2023-02-11T20:59:09.541Z,37.72
2023-02-11T21:01:43.464Z,34.83
2023-02-11T21:04:21.401Z,34.88
2023-02-11T21:06:54.718Z,34.92
2023-02-11T21:09:26.186Z,32.88
2023-02-11T21:11:54.388Z,36.70
2023-02-11T21:14:23.920Z,31.40
2023-02-11T21:16:51.300Z,33.80
2023-02-11T21:19:18.733Z,38.90
2023-02-11T21:21:45.724Z,32.83
2023-02-11T21:24:13.128Z,37.35
2023-02-11T21:26:40.387Z,34.85
2023-02-11T21:29:08.624Z,38.47
2023-02-11T21:31:36.685Z,35.97
2023-02-11T21:34:04.912Z,35.97
2023-02-11T21:36:31.953Z,37.70
2023-02-11T21:39:00.070Z,35.85
2023-02-11T21:41:27.481Z,38.85
2023-02-11T21:43:54.923Z,38.35
2023-02-11T21:46:22.368Z,39.63
2023-02-11T21:48:50.081Z,38.30
2023-02-11T21:51:21.850Z,36.78
2023-02-11T21:53:54.730Z,37.45
2023-02-11T21:56:22.447Z,35.38
2023-02-11T21:58:54.563Z,38.35
2023-02-11T22:01:30.088Z,37.85
2023-02-11T22:03:59.412Z,36.88
2023-02-11T22:06:32.811Z,36.97
2023-02-11T22:09:07.424Z,33.38
2023-02-11T22:11:34.711Z,35.80
2023-02-11T22:14:04.786Z,34.63
2023-02-11T22:16:32.005Z,36.80
2023-02-11T22:19:00.193Z,39.85
2023-02-11T22:21:27.173Z,39.80
2023-02-11T22:23:55.888Z,33.50
2023-02-11T22:26:25.886Z,42.15
2023-02-11T22:28:53.732Z,35.50
2023-02-11T22:31:31.828Z,34.58
2023-02-11T22:34:00.315Z,33.97
2023-02-11T22:36:31.305Z,39.35
2023-02-11T22:39:12.429Z,40.05
2023-02-11T22:41:42.505Z,37.13
2023-02-11T22:44:10.925Z,33.72
2023-02-11T22:46:38.331Z,36.17
2023-02-11T22:49:07.210Z,35.47
2023-02-11T22:51:34.123Z,39.40
2023-02-11T22:54:06.063Z,35.03
2023-02-11T22:56:35.152Z,38.15
2023-02-11T22:59:06.955Z,40.10
2023-02-11T23:01:34.671Z,34.60
2023-02-11T23:04:04.990Z,39.45
2023-02-11T23:06:32.136Z,38.30
2023-02-11T23:08:59.121Z,35.88
2023-02-11T23:11:30.706Z,41.65
2023-02-11T23:13:58.723Z,41.28
2023-02-11T23:16:31.236Z,39.85
2023-02-11T23:19:06.146Z,36.20
2023-02-11T23:21:37.782Z,41.03
2023-02-11T23:24:12.792Z,36.70
2023-02-11T23:26:42.387Z,34.80
2023-02-11T23:29:10.741Z,39.50
2023-02-11T23:31:43.295Z,35.30
2023-02-11T23:34:11.215Z,39.28
2023-02-11T23:36:38.257Z,38.22
2023-02-11T23:39:05.826Z,35.90
2023-02-11T23:41:32.793Z,38.25
2023-02-11T23:43:59.765Z,38.22
2023-02-11T23:46:27.796Z,33.72
2023-02-11T23:48:54.996Z,36.58
2023-02-11T23:51:23.552Z,39.15
2023-02-11T23:53:52.550Z,35.95
2023-02-11T23:56:24.857Z,34.05
2023-02-11T23:58:55.077Z,36.20
